sensor_id;sensor_type;location;lat;lon;timestamp;P1;durP1;ratioP1;P2;durP2;ratioP2
3369;SDS011;42042;51.948;7.628;2022-11-15T00:01:42;15.98;;;12.00;;
3369;SDS011;42042;51.948;7.628;2022-11-15T00:04:09;18.02;;;12.77;;
3369;SDS011;42042;51.948;7.628;2022-11-15T00:06:38;19.70;;;13.80;;
3369;SDS011;42042;51.948;7.628;2022-11-15T00:09:05;16.95;;;12.65;;
3369;SDS011;42042;51.948;7.628;2022-11-15T00:11:32;16.35;;;12.45;;
3369;SDS011;42042;51.948;7.628;2022-11-15T00:14:00;15.60;;;11.70;;
3369;SDS011;42042;51.948;7.628;2022-11-15T00:16:28;16.10;;;12.80;;
3369;SDS011;42042;51.948;7.628;2022-11-15T00:18:55;15.60;;;12.32;;
3369;SDS011;42042;51.948;7.628;2022-11-15T00:21:23;16.83;;;12.10;;
3369;SDS011;42042;51.948;7.628;2022-11-15T00:23:51;16.95;;;12.90;;
3369;SDS011;42042;51.948;7.628;2022-11-15T00:26:19;16.85;;;11.80;;
3369;SDS011;42042;51.948;7.628;2022-11-15T00:28:46;12.48;;;11.20;;
3369;SDS011;42042;51.948;7.628;2022-11-15T00:31:14;16.80;;;12.30;;
3369;SDS011;42042;51.948;7.628;2022-11-15T00:33:42;16.45;;;12.02;;
3369;SDS011;42042;51.948;7.628;2022-11-15T00:36:10;14.85;;;11.00;;
3369;SDS011;42042;51.948;7.628;2022-11-15T00:38:38;18.20;;;13.10;;
3369;SDS011;42042;51.948;7.628;2022-11-15T00:41:07;15.07;;;12.50;;
3369;SDS011;42042;51.948;7.628;2022-11-15T00:43:34;15.07;;;12.23;;
3369;SDS011;42042;51.948;7.628;2022-11-15T00:46:01;13.50;;;11.93;;
3369;SDS011;42042;51.948;7.628;2022-11-15T00:48:29;17.10;;;13.33;;
3369;SDS011;42042;51.948;7.628;2022-11-15T00:50:56;16.30;;;12.85;;
3369;SDS011;42042;51.948;7.628;2022-11-15T00:53:24;18.40;;;12.43;;
3369;SDS011;42042;51.948;7.628;2022-11-15T00:55:52;16.03;;;12.07;;
3369;SDS011;42042;51.948;7.628;2022-11-15T00:58:20;13.60;;;11.67;;
3369;SDS011;42042;51.948;7.628;2022-11-15T01:00:47;13.63;;;11.57;;
3369;SDS011;42042;51.948;7.628;2022-11-15T01:03:15;18.27;;;13.90;;
3369;SDS011;42042;51.948;7.628;2022-11-15T01:05:42;15.50;;;12.23;;
3369;SDS011;42042;51.948;7.628;2022-11-15T01:08:11;13.73;;;11.90;;
3369;SDS011;42042;51.948;7.628;2022-11-15T01:10:39;16.47;;;12.77;;
3369;SDS011;42042;51.948;7.628;2022-11-15T01:13:06;16.30;;;12.60;;
3369;SDS011;42042;51.948;7.628;2022-11-15T01:15:38;15.17;;;11.50;;
3369;SDS011;42042;51.948;7.628;2022-11-15T01:18:05;13.27;;;10.43;;
3369;SDS011;42042;51.948;7.628;2022-11-15T01:20:32;16.80;;;11.87;;
3369;SDS011;42042;51.948;7.628;2022-11-15T01:22:59;17.90;;;12.93;;
3369;SDS011;42042;51.948;7.628;2022-11-15T01:25:27;16.50;;;13.20;;
3369;SDS011;42042;51.948;7.628;2022-11-15T01:27:54;14.30;;;12.00;;
3369;SDS011;42042;51.948;7.628;2022-11-15T01:30:21;12.47;;;10.63;;
3369;SDS011;42042;51.948;7.628;2022-11-15T01:32:50;14.70;;;12.77;;
3369;SDS011;42042;51.948;7.628;2022-11-15T01:35:17;12.73;;;11.32;;
3369;SDS011;42042;51.948;7.628;2022-11-15T01:37:45;17.90;;;12.20;;
3369;SDS011;42042;51.948;7.628;2022-11-15T01:40:12;15.27;;;12.53;;
3369;SDS011;42042;51.948;7.628;2022-11-15T01:42:39;15.83;;;11.53;;
3369;SDS011;42042;51.948;7.628;2022-11-15T01:45:07;14.80;;;11.93;;
3369;SDS011;42042;51.948;7.628;2022-11-15T01:47:39;16.73;;;12.83;;
3369;SDS011;42042;51.948;7.628;2022-11-15T01:50:09;17.35;;;12.38;;
3369;SDS011;42042;51.948;7.628;2022-11-15T01:52:37;14.27;;;12.40;;
3369;SDS011;42042;51.948;7.628;2022-11-15T01:55:07;19.00;;;13.27;;
3369;SDS011;42042;51.948;7.628;2022-11-15T01:57:35;16.40;;;12.33;;
3369;SDS011;42042;51.948;7.628;2022-11-15T02:00:02;18.20;;;12.67;;
3369;SDS011;42042;51.948;7.628;2022-11-15T02:02:30;14.30;;;11.30;;
3369;SDS011;42042;51.948;7.628;2022-11-15T02:04:57;18.57;;;12.40;;
3369;SDS011;42042;51.948;7.628;2022-11-15T02:07:26;13.20;;;11.17;;
3369;SDS011;42042;51.948;7.628;2022-11-15T02:09:55;14.50;;;12.70;;
3369;SDS011;42042;51.948;7.628;2022-11-15T02:12:22;15.07;;;11.70;;
3369;SDS011;42042;51.948;7.628;2022-11-15T02:14:51;15.20;;;12.90;;
3369;SDS011;42042;51.948;7.628;2022-11-15T02:17:28;14.73;;;12.80;;
3369;SDS011;42042;51.948;7.628;2022-11-15T02:22:44;14.70;;;12.27;;
3369;SDS011;42042;51.948;7.628;2022-11-15T02:25:20;19.90;;;12.17;;
3369;SDS011;42042;51.948;7.628;2022-11-15T02:30:39;15.60;;;12.70;;
3369;SDS011;42042;51.948;7.628;2022-11-15T02:33:10;13.80;;;10.80;;
3369;SDS011;42042;51.948;7.628;2022-11-15T02:35:42;14.97;;;11.77;;
3369;SDS011;42042;51.948;7.628;2022-11-15T02:38:12;15.17;;;11.77;;
3369;SDS011;42042;51.948;7.628;2022-11-15T02:40:45;14.60;;;11.10;;
3369;SDS011;42042;51.948;7.628;2022-11-15T02:43:14;16.53;;;12.20;;
3369;SDS011;42042;51.948;7.628;2022-11-15T02:46:03;18.10;;;13.27;;
3369;SDS011;42042;51.948;7.628;2022-11-15T02:48:33;15.20;;;12.23;;
3369;SDS011;42042;51.948;7.628;2022-11-15T02:51:00;14.27;;;11.97;;
3369;SDS011;42042;51.948;7.628;2022-11-15T02:53:28;17.80;;;11.80;;
3369;SDS011;42042;51.948;7.628;2022-11-15T02:55:55;15.17;;;11.80;;
3369;SDS011;42042;51.948;7.628;2022-11-15T02:58:30;18.90;;;12.50;;
3369;SDS011;42042;51.948;7.628;2022-11-15T03:01:01;14.60;;;11.77;;
3369;SDS011;42042;51.948;7.628;2022-11-15T03:03:36;14.20;;;12.00;;
3369;SDS011;42042;51.948;7.628;2022-11-15T03:06:09;17.83;;;13.40;;
3369;SDS011;42042;51.948;7.628;2022-11-15T03:08:40;17.63;;;11.97;;
3369;SDS011;42042;51.948;7.628;2022-11-15T03:11:10;19.00;;;11.77;;
3369;SDS011;42042;51.948;7.628;2022-11-15T03:13:39;13.67;;;11.30;;
3369;SDS011;42042;51.948;7.628;2022-11-15T03:16:11;19.40;;;13.23;;
3369;SDS011;42042;51.948;7.628;2022-11-15T03:18:43;20.40;;;12.80;;
3369;SDS011;42042;51.948;7.628;2022-11-15T03:21:12;18.00;;;12.83;;
3369;SDS011;42042;51.948;7.628;2022-11-15T03:23:41;12.97;;;11.07;;
3369;SDS011;42042;51.948;7.628;2022-11-15T03:26:09;14.40;;;11.80;;
3369;SDS011;42042;51.948;7.628;2022-11-15T03:28:37;10.93;;;9.63;;
3369;SDS011;42042;51.948;7.628;2022-11-15T03:31:05;14.97;;;11.20;;
3369;SDS011;42042;51.948;7.628;2022-11-15T03:33:54;16.40;;;11.30;;
3369;SDS011;42042;51.948;7.628;2022-11-15T03:36:23;14.80;;;10.73;;
3369;SDS011;42042;51.948;7.628;2022-11-15T03:38:51;13.60;;;12.17;;
3369;SDS011;42042;51.948;7.628;2022-11-15T03:41:20;14.93;;;10.80;;
3369;SDS011;42042;51.948;7.628;2022-11-15T03:43:50;12.53;;;11.23;;
3369;SDS011;42042;51.948;7.628;2022-11-15T03:46:21;14.13;;;11.30;;
3369;SDS011;42042;51.948;7.628;2022-11-15T03:48:52;12.27;;;11.07;;
3369;SDS011;42042;51.948;7.628;2022-11-15T03:51:21;11.17;;;9.97;;
3369;SDS011;42042;51.948;7.628;2022-11-15T03:53:49;17.27;;;11.37;;
3369;SDS011;42042;51.948;7.628;2022-11-15T03:56:16;16.17;;;12.57;;
3369;SDS011;42042;51.948;7.628;2022-11-15T03:58:44;21.23;;;13.23;;
3369;SDS011;42042;51.948;7.628;2022-11-15T04:01:11;17.40;;;12.63;;
3369;SDS011;42042;51.948;7.628;2022-11-15T04:03:38;13.60;;;12.03;;
3369;SDS011;42042;51.948;7.628;2022-11-15T04:06:05;14.40;;;11.20;;
3369;SDS011;42042;51.948;7.628;2022-11-15T04:08:34;14.90;;;12.80;;
3369;SDS011;42042;51.948;7.628;2022-11-15T04:11:01;14.50;;;13.07;;
3369;SDS011;42042;51.948;7.628;2022-11-15T04:13:28;14.30;;;11.07;;
3369;SDS011;42042;51.948;7.628;2022-11-15T04:15:56;14.37;;;12.60;;
3369;SDS011;42042;51.948;7.628;2022-11-15T04:18:23;15.70;;;12.90;;
3369;SDS011;42042;51.948;7.628;2022-11-15T04:20:50;16.33;;;12.60;;
3369;SDS011;42042;51.948;7.628;2022-11-15T04:23:36;12.97;;;10.60;;
3369;SDS011;42042;51.948;7.628;2022-11-15T04:26:26;12.73;;;10.83;;
3369;SDS011;42042;51.948;7.628;2022-11-15T04:28:54;14.17;;;11.87;;
3369;SDS011;42042;51.948;7.628;2022-11-15T04:31:39;16.33;;;11.60;;
3369;SDS011;42042;51.948;7.628;2022-11-15T04:34:06;15.07;;;11.50;;
3369;SDS011;42042;51.948;7.628;2022-11-15T04:36:33;17.60;;;12.00;;
3369;SDS011;42042;51.948;7.628;2022-11-15T04:39:19;17.10;;;12.80;;
3369;SDS011;42042;51.948;7.628;2022-11-15T04:41:46;14.67;;;11.40;;
3369;SDS011;42042;51.948;7.628;2022-11-15T04:44:13;14.60;;;11.67;;
3369;SDS011;42042;51.948;7.628;2022-11-15T04:46:43;21.10;;;12.20;;
3369;SDS011;42042;51.948;7.628;2022-11-15T04:49:10;18.33;;;12.10;;
3369;SDS011;42042;51.948;7.628;2022-11-15T04:51:38;15.03;;;11.40;;
3369;SDS011;42042;51.948;7.628;2022-11-15T04:54:05;20.10;;;11.27;;
3369;SDS011;42042;51.948;7.628;2022-11-15T04:56:33;16.93;;;11.90;;
3369;SDS011;42042;51.948;7.628;2022-11-15T04:59:01;13.67;;;11.67;;
3369;SDS011;42042;51.948;7.628;2022-11-15T05:01:28;13.47;;;11.70;;
3369;SDS011;42042;51.948;7.628;2022-11-15T05:03:55;12.17;;;10.73;;
3369;SDS011;42042;51.948;7.628;2022-11-15T05:06:40;14.03;;;11.13;;
3369;SDS011;42042;51.948;7.628;2022-11-15T05:09:07;12.50;;;10.70;;
3369;SDS011;42042;51.948;7.628;2022-11-15T05:11:36;16.70;;;11.77;;
3369;SDS011;42042;51.948;7.628;2022-11-15T05:14:03;16.03;;;10.77;;
3369;SDS011;42042;51.948;7.628;2022-11-15T05:16:30;11.47;;;10.17;;
3369;SDS011;42042;51.948;7.628;2022-11-15T05:18:57;11.70;;;10.50;;
3369;SDS011;42042;51.948;7.628;2022-11-15T05:21:24;14.90;;;10.57;;
3369;SDS011;42042;51.948;7.628;2022-11-15T05:23:52;14.77;;;10.20;;
3369;SDS011;42042;51.948;7.628;2022-11-15T05:26:19;15.27;;;10.67;;
3369;SDS011;42042;51.948;7.628;2022-11-15T05:28:51;15.07;;;10.67;;
3369;SDS011;42042;51.948;7.628;2022-11-15T05:31:18;14.17;;;10.37;;
3369;SDS011;42042;51.948;7.628;2022-11-15T05:33:45;13.00;;;10.77;;
3369;SDS011;42042;51.948;7.628;2022-11-15T05:36:14;12.10;;;9.70;;
3369;SDS011;42042;51.948;7.628;2022-11-15T05:38:43;13.70;;;9.63;;
3369;SDS011;42042;51.948;7.628;2022-11-15T05:41:10;10.20;;;9.20;;
3369;SDS011;42042;51.948;7.628;2022-11-15T05:43:38;10.97;;;9.47;;
3369;SDS011;42042;51.948;7.628;2022-11-15T05:46:07;10.47;;;9.43;;
3369;SDS011;42042;51.948;7.628;2022-11-15T05:48:34;14.03;;;10.30;;
3369;SDS011;42042;51.948;7.628;2022-11-15T05:51:03;11.33;;;10.00;;
3369;SDS011;42042;51.948;7.628;2022-11-15T05:53:30;14.83;;;10.53;;
3369;SDS011;42042;51.948;7.628;2022-11-15T05:55:58;19.07;;;11.77;;
3369;SDS011;42042;51.948;7.628;2022-11-15T05:58:25;15.57;;;11.20;;
3369;SDS011;42042;51.948;7.628;2022-11-15T06:00:52;14.57;;;11.13;;
3369;SDS011;42042;51.948;7.628;2022-11-15T06:03:22;17.20;;;13.33;;
3369;SDS011;42042;51.948;7.628;2022-11-15T06:05:49;12.00;;;10.67;;
3369;SDS011;42042;51.948;7.628;2022-11-15T06:08:16;17.33;;;11.10;;
3369;SDS011;42042;51.948;7.628;2022-11-15T06:10:43;13.90;;;10.60;;
3369;SDS011;42042;51.948;7.628;2022-11-15T06:13:11;17.80;;;10.93;;
3369;SDS011;42042;51.948;7.628;2022-11-15T06:15:38;12.63;;;10.90;;
3369;SDS011;42042;51.948;7.628;2022-11-15T06:18:06;18.63;;;11.33;;
3369;SDS011;42042;51.948;7.628;2022-11-15T06:20:35;14.97;;;10.87;;
3369;SDS011;42042;51.948;7.628;2022-11-15T06:23:03;15.47;;;11.70;;
3369;SDS011;42042;51.948;7.628;2022-11-15T06:25:30;16.13;;;12.23;;
3369;SDS011;42042;51.948;7.628;2022-11-15T06:27:58;19.23;;;12.00;;
3369;SDS011;42042;51.948;7.628;2022-11-15T06:30:25;18.17;;;12.67;;
3369;SDS011;42042;51.948;7.628;2022-11-15T06:32:58;18.67;;;13.97;;
3369;SDS011;42042;51.948;7.628;2022-11-15T06:35:25;13.80;;;12.40;;
3369;SDS011;42042;51.948;7.628;2022-11-15T06:37:54;14.30;;;11.07;;
3369;SDS011;42042;51.948;7.628;2022-11-15T06:40:21;15.30;;;11.30;;
3369;SDS011;42042;51.948;7.628;2022-11-15T06:42:49;17.57;;;13.00;;
3369;SDS011;42042;51.948;7.628;2022-11-15T06:45:16;16.60;;;11.00;;
3369;SDS011;42042;51.948;7.628;2022-11-15T06:47:46;15.20;;;11.07;;
3369;SDS011;42042;51.948;7.628;2022-11-15T06:50:13;15.70;;;11.23;;
3369;SDS011;42042;51.948;7.628;2022-11-15T06:52:40;16.17;;;12.97;;
3369;SDS011;42042;51.948;7.628;2022-11-15T06:55:09;17.20;;;13.37;;
3369;SDS011;42042;51.948;7.628;2022-11-15T06:57:36;15.20;;;12.20;;
3369;SDS011;42042;51.948;7.628;2022-11-15T07:00:04;14.10;;;11.43;;
3369;SDS011;42042;51.948;7.628;2022-11-15T07:02:31;17.83;;;10.27;;
3369;SDS011;42042;51.948;7.628;2022-11-15T07:04:59;13.57;;;10.90;;
3369;SDS011;42042;51.948;7.628;2022-11-15T07:07:26;14.00;;;11.90;;
3369;SDS011;42042;51.948;7.628;2022-11-15T07:09:53;15.23;;;10.90;;
3369;SDS011;42042;51.948;7.628;2022-11-15T07:12:21;15.77;;;11.60;;
3369;SDS011;42042;51.948;7.628;2022-11-15T07:14:49;14.73;;;11.40;;
3369;SDS011;42042;51.948;7.628;2022-11-15T07:17:16;11.97;;;10.00;;
3369;SDS011;42042;51.948;7.628;2022-11-15T07:19:43;21.43;;;12.47;;
3369;SDS011;42042;51.948;7.628;2022-11-15T07:22:10;14.73;;;11.57;;
3369;SDS011;42042;51.948;7.628;2022-11-15T07:24:37;13.07;;;10.20;;
3369;SDS011;42042;51.948;7.628;2022-11-15T07:27:05;13.83;;;10.07;;
3369;SDS011;42042;51.948;7.628;2022-11-15T07:29:33;11.30;;;10.20;;
3369;SDS011;42042;51.948;7.628;2022-11-15T07:32:00;14.60;;;9.53;;
3369;SDS011;42042;51.948;7.628;2022-11-15T07:34:27;10.73;;;8.83;;
3369;SDS011;42042;51.948;7.628;2022-11-15T07:37:00;11.10;;;8.63;;
3369;SDS011;42042;51.948;7.628;2022-11-15T07:39:29;11.93;;;9.97;;
3369;SDS011;42042;51.948;7.628;2022-11-15T07:41:56;9.77;;;8.70;;
3369;SDS011;42042;51.948;7.628;2022-11-15T07:44:39;9.13;;;8.00;;
3369;SDS011;42042;51.948;7.628;2022-11-15T07:47:07;11.40;;;8.60;;
3369;SDS011;42042;51.948;7.628;2022-11-15T07:49:34;9.90;;;7.53;;
3369;SDS011;42042;51.948;7.628;2022-11-15T07:52:01;13.50;;;7.87;;
3369;SDS011;42042;51.948;7.628;2022-11-15T07:54:28;9.20;;;8.13;;
3369;SDS011;42042;51.948;7.628;2022-11-15T07:56:55;11.00;;;8.93;;
3369;SDS011;42042;51.948;7.628;2022-11-15T07:59:22;9.30;;;8.37;;
3369;SDS011;42042;51.948;7.628;2022-11-15T08:01:51;9.37;;;7.83;;
3369;SDS011;42042;51.948;7.628;2022-11-15T08:04:18;10.13;;;9.03;;
3369;SDS011;42042;51.948;7.628;2022-11-15T08:06:45;9.00;;;7.80;;
3369;SDS011;42042;51.948;7.628;2022-11-15T08:09:13;8.67;;;6.87;;
3369;SDS011;42042;51.948;7.628;2022-11-15T08:11:40;9.53;;;8.33;;
3369;SDS011;42042;51.948;7.628;2022-11-15T08:14:07;8.63;;;7.60;;
3369;SDS011;42042;51.948;7.628;2022-11-15T08:16:34;8.63;;;7.83;;
3369;SDS011;42042;51.948;7.628;2022-11-15T08:19:03;8.60;;;7.43;;
3369;SDS011;42042;51.948;7.628;2022-11-15T08:21:30;11.53;;;7.03;;
3369;SDS011;42042;51.948;7.628;2022-11-15T08:23:57;8.27;;;6.93;;
3369;SDS011;42042;51.948;7.628;2022-11-15T08:26:24;9.73;;;8.00;;
3369;SDS011;42042;51.948;7.628;2022-11-15T08:28:54;8.00;;;7.30;;
3369;SDS011;42042;51.948;7.628;2022-11-15T08:31:22;9.73;;;5.87;;
3369;SDS011;42042;51.948;7.628;2022-11-15T08:33:49;6.13;;;5.47;;
3369;SDS011;42042;51.948;7.628;2022-11-15T08:36:17;6.00;;;5.40;;
3369;SDS011;42042;51.948;7.628;2022-11-15T08:38:45;5.50;;;5.07;;
3369;SDS011;42042;51.948;7.628;2022-11-15T08:41:12;5.50;;;4.70;;
3369;SDS011;42042;51.948;7.628;2022-11-15T08:43:40;5.40;;;4.90;;
3369;SDS011;42042;51.948;7.628;2022-11-15T08:46:08;5.90;;;5.30;;
3369;SDS011;42042;51.948;7.628;2022-11-15T08:48:35;5.67;;;4.67;;
3369;SDS011;42042;51.948;7.628;2022-11-15T08:51:02;4.63;;;4.23;;
3369;SDS011;42042;51.948;7.628;2022-11-15T08:53:31;6.03;;;4.23;;
3369;SDS011;42042;51.948;7.628;2022-11-15T08:55:58;4.03;;;3.63;;
3369;SDS011;42042;51.948;7.628;2022-11-15T08:58:25;5.20;;;4.30;;
3369;SDS011;42042;51.948;7.628;2022-11-15T09:00:53;4.90;;;4.40;;
3369;SDS011;42042;51.948;7.628;2022-11-15T09:03:20;4.13;;;3.83;;
3369;SDS011;42042;51.948;7.628;2022-11-15T09:05:47;4.90;;;3.90;;
3369;SDS011;42042;51.948;7.628;2022-11-15T09:08:14;4.77;;;4.03;;
3369;SDS011;42042;51.948;7.628;2022-11-15T09:10:43;6.93;;;3.27;;
3369;SDS011;42042;51.948;7.628;2022-11-15T09:13:10;4.60;;;3.33;;
3369;SDS011;42042;51.948;7.628;2022-11-15T09:15:37;3.67;;;3.33;;
3369;SDS011;42042;51.948;7.628;2022-11-15T09:18:04;3.97;;;3.57;;
3369;SDS011;42042;51.948;7.628;2022-11-15T09:20:31;4.60;;;3.30;;
3369;SDS011;42042;51.948;7.628;2022-11-15T09:22:59;3.40;;;3.10;;
3369;SDS011;42042;51.948;7.628;2022-11-15T09:25:27;3.63;;;2.97;;
3369;SDS011;42042;51.948;7.628;2022-11-15T09:27:55;4.90;;;3.47;;
3369;SDS011;42042;51.948;7.628;2022-11-15T09:30:22;3.70;;;2.70;;
3369;SDS011;42042;51.948;7.628;2022-11-15T09:32:50;3.07;;;2.77;;
3369;SDS011;42042;51.948;7.628;2022-11-15T09:35:17;3.03;;;2.83;;
3369;SDS011;42042;51.948;7.628;2022-11-15T09:37:44;5.00;;;3.00;;
3369;SDS011;42042;51.948;7.628;2022-11-15T09:40:12;3.97;;;3.37;;
3369;SDS011;42042;51.948;7.628;2022-11-15T09:45:31;7.40;;;2.60;;
3369;SDS011;42042;51.948;7.628;2022-11-15T09:50:44;2.77;;;2.57;;
3369;SDS011;42042;51.948;7.628;2022-11-15T09:53:14;3.93;;;2.53;;
3369;SDS011;42042;51.948;7.628;2022-11-15T09:55:44;3.73;;;2.70;;
3369;SDS011;42042;51.948;7.628;2022-11-15T09:58:16;3.07;;;2.87;;
3369;SDS011;42042;51.948;7.628;2022-11-15T10:00:47;4.20;;;2.33;;
3369;SDS011;42042;51.948;7.628;2022-11-15T10:03:18;3.43;;;2.70;;
3369;SDS011;42042;51.948;7.628;2022-11-15T10:05:47;3.47;;;2.63;;
3369;SDS011;42042;51.948;7.628;2022-11-15T10:11:01;3.13;;;2.57;;
3369;SDS011;42042;51.948;7.628;2022-11-15T10:13:30;3.00;;;2.70;;
3369;SDS011;42042;51.948;7.628;2022-11-15T10:16:01;10.30;;;3.20;;
3369;SDS011;42042;51.948;7.628;2022-11-15T10:18:31;3.87;;;2.50;;
3369;SDS011;42042;51.948;7.628;2022-11-15T10:21:02;2.53;;;2.33;;
3369;SDS011;42042;51.948;7.628;2022-11-15T10:23:36;3.83;;;2.47;;
3369;SDS011;42042;51.948;7.628;2022-11-15T10:26:04;2.53;;;2.20;;
3369;SDS011;42042;51.948;7.628;2022-11-15T10:28:34;2.40;;;2.30;;
3369;SDS011;42042;51.948;7.628;2022-11-15T10:31:02;2.93;;;2.50;;
3369;SDS011;42042;51.948;7.628;2022-11-15T10:33:31;2.90;;;2.60;;
3369;SDS011;42042;51.948;7.628;2022-11-15T10:36:14;2.80;;;2.30;;
3369;SDS011;42042;51.948;7.628;2022-11-15T10:38:52;4.57;;;2.63;;
3369;SDS011;42042;51.948;7.628;2022-11-15T10:41:20;3.60;;;2.77;;
3369;SDS011;42042;51.948;7.628;2022-11-15T10:44:02;2.63;;;2.20;;
3369;SDS011;42042;51.948;7.628;2022-11-15T10:46:31;3.43;;;2.23;;
3369;SDS011;42042;51.948;7.628;2022-11-15T10:49:06;2.00;;;1.90;;
3369;SDS011;42042;51.948;7.628;2022-11-15T10:51:40;3.60;;;2.37;;
3369;SDS011;42042;51.948;7.628;2022-11-15T10:54:08;3.30;;;2.30;;
3369;SDS011;42042;51.948;7.628;2022-11-15T10:56:38;2.37;;;1.80;;
3369;SDS011;42042;51.948;7.628;2022-11-15T10:59:09;4.57;;;1.90;;
3369;SDS011;42042;51.948;7.628;2022-11-15T11:01:46;3.30;;;2.33;;
3369;SDS011;42042;51.948;7.628;2022-11-15T11:04:14;2.40;;;1.83;;
3369;SDS011;42042;51.948;7.628;2022-11-15T11:06:48;1.90;;;1.67;;
3369;SDS011;42042;51.948;7.628;2022-11-15T11:09:23;2.27;;;2.00;;
3369;SDS011;42042;51.948;7.628;2022-11-15T11:11:50;1.80;;;1.70;;
3369;SDS011;42042;51.948;7.628;2022-11-15T11:14:20;6.80;;;2.40;;
3369;SDS011;42042;51.948;7.628;2022-11-15T11:16:50;1.70;;;1.60;;
3369;SDS011;42042;51.948;7.628;2022-11-15T11:19:23;3.17;;;1.57;;
3369;SDS011;42042;51.948;7.628;2022-11-15T11:21:55;4.47;;;2.50;;
3369;SDS011;42042;51.948;7.628;2022-11-15T11:24:26;3.47;;;2.03;;
3369;SDS011;42042;51.948;7.628;2022-11-15T11:26:59;1.97;;;1.77;;
3369;SDS011;42042;51.948;7.628;2022-11-15T11:29:33;4.97;;;2.00;;
3369;SDS011;42042;51.948;7.628;2022-11-15T11:32:09;4.60;;;3.20;;
3369;SDS011;42042;51.948;7.628;2022-11-15T11:34:41;2.10;;;1.90;;
3369;SDS011;42042;51.948;7.628;2022-11-15T11:37:14;2.57;;;1.80;;
3369;SDS011;42042;51.948;7.628;2022-11-15T11:39:47;3.00;;;1.93;;
3369;SDS011;42042;51.948;7.628;2022-11-15T11:42:16;2.43;;;2.23;;
3369;SDS011;42042;51.948;7.628;2022-11-15T11:44:49;3.33;;;2.20;;
3369;SDS011;42042;51.948;7.628;2022-11-15T11:47:21;2.23;;;1.93;;
3369;SDS011;42042;51.948;7.628;2022-11-15T11:49:49;3.40;;;1.90;;
3369;SDS011;42042;51.948;7.628;2022-11-15T11:52:17;9.63;;;1.83;;
3369;SDS011;42042;51.948;7.628;2022-11-15T11:54:52;1.50;;;1.40;;
3369;SDS011;42042;51.948;7.628;2022-11-15T11:57:23;2.90;;;1.93;;
3369;SDS011;42042;51.948;7.628;2022-11-15T11:59:53;3.47;;;1.90;;
3369;SDS011;42042;51.948;7.628;2022-11-15T12:02:27;4.27;;;1.80;;
3369;SDS011;42042;51.948;7.628;2022-11-15T12:04:57;4.70;;;2.37;;
3369;SDS011;42042;51.948;7.628;2022-11-15T12:07:29;1.57;;;1.40;;
3369;SDS011;42042;51.948;7.628;2022-11-15T12:09:58;2.27;;;1.40;;
3369;SDS011;42042;51.948;7.628;2022-11-15T12:12:27;2.53;;;1.57;;
3369;SDS011;42042;51.948;7.628;2022-11-15T12:15:04;2.53;;;1.93;;
3369;SDS011;42042;51.948;7.628;2022-11-15T12:17:38;2.07;;;1.90;;
3369;SDS011;42042;51.948;7.628;2022-11-15T12:20:14;1.83;;;1.53;;
3369;SDS011;42042;51.948;7.628;2022-11-15T12:22:42;1.73;;;1.63;;
3369;SDS011;42042;51.948;7.628;2022-11-15T12:25:14;3.50;;;2.10;;
3369;SDS011;42042;51.948;7.628;2022-11-15T12:27:42;3.43;;;1.70;;
3369;SDS011;42042;51.948;7.628;2022-11-15T12:30:12;2.70;;;1.70;;
3369;SDS011;42042;51.948;7.628;2022-11-15T12:32:48;1.97;;;1.40;;
3369;SDS011;42042;51.948;7.628;2022-11-15T12:35:21;3.43;;;2.03;;
3369;SDS011;42042;51.948;7.628;2022-11-15T12:37:50;3.00;;;1.60;;
3369;SDS011;42042;51.948;7.628;2022-11-15T12:40:23;1.83;;;1.70;;
3369;SDS011;42042;51.948;7.628;2022-11-15T12:42:58;5.70;;;1.60;;
3369;SDS011;42042;51.948;7.628;2022-11-15T12:45:26;2.30;;;1.60;;
3369;SDS011;42042;51.948;7.628;2022-11-15T12:47:57;2.43;;;1.60;;
3369;SDS011;42042;51.948;7.628;2022-11-15T12:50:52;2.40;;;1.40;;
3369;SDS011;42042;51.948;7.628;2022-11-15T12:53:26;2.40;;;1.80;;
3369;SDS011;42042;51.948;7.628;2022-11-15T12:56:08;2.20;;;1.50;;
3369;SDS011;42042;51.948;7.628;2022-11-15T12:58:40;2.97;;;1.67;;
3369;SDS011;42042;51.948;7.628;2022-11-15T13:01:08;4.93;;;1.70;;
3369;SDS011;42042;51.948;7.628;2022-11-15T13:03:43;1.50;;;1.40;;
3369;SDS011;42042;51.948;7.628;2022-11-15T13:06:36;2.23;;;1.90;;
3369;SDS011;42042;51.948;7.628;2022-11-15T13:09:49;5.60;;;2.50;;
3369;SDS011;42042;51.948;7.628;2022-11-15T13:11:54;2.40;;;2.20;;
3369;SDS011;42042;51.948;7.628;2022-11-15T13:14:41;1.73;;;1.53;;
3369;SDS011;42042;51.948;7.628;2022-11-15T13:20:16;3.60;;;1.97;;
3369;SDS011;42042;51.948;7.628;2022-11-15T13:22:44;6.13;;;1.90;;
3369;SDS011;42042;51.948;7.628;2022-11-15T13:25:26;1.50;;;1.40;;
3369;SDS011;42042;51.948;7.628;2022-11-15T13:27:56;2.07;;;1.60;;
3369;SDS011;42042;51.948;7.628;2022-11-15T13:30:24;3.83;;;1.60;;
3369;SDS011;42042;51.948;7.628;2022-11-15T13:32:52;1.93;;;1.60;;
3369;SDS011;42042;51.948;7.628;2022-11-15T13:35:20;5.83;;;2.00;;
3369;SDS011;42042;51.948;7.628;2022-11-15T13:37:48;2.17;;;1.40;;
3369;SDS011;42042;51.948;7.628;2022-11-15T13:40:18;3.53;;;1.60;;
3369;SDS011;42042;51.948;7.628;2022-11-15T13:42:46;2.03;;;1.83;;
3369;SDS011;42042;51.948;7.628;2022-11-15T13:45:16;2.10;;;1.83;;
3369;SDS011;42042;51.948;7.628;2022-11-15T13:47:44;2.67;;;2.20;;
3369;SDS011;42042;51.948;7.628;2022-11-15T13:50:11;3.77;;;1.67;;
3369;SDS011;42042;51.948;7.628;2022-11-15T13:52:39;5.00;;;2.00;;
3369;SDS011;42042;51.948;7.628;2022-11-15T13:55:09;2.50;;;1.80;;
3369;SDS011;42042;51.948;7.628;2022-11-15T13:57:39;1.80;;;1.70;;
3369;SDS011;42042;51.948;7.628;2022-11-15T14:00:25;3.37;;;1.47;;
3369;SDS011;42042;51.948;7.628;2022-11-15T14:02:53;1.43;;;1.33;;
3369;SDS011;42042;51.948;7.628;2022-11-15T14:05:21;1.87;;;1.50;;
3369;SDS011;42042;51.948;7.628;2022-11-15T14:07:55;4.70;;;1.90;;
3369;SDS011;42042;51.948;7.628;2022-11-15T14:10:27;1.77;;;1.50;;
3369;SDS011;42042;51.948;7.628;2022-11-15T14:12:55;1.57;;;1.33;;
3369;SDS011;42042;51.948;7.628;2022-11-15T14:15:27;1.70;;;1.50;;
3369;SDS011;42042;51.948;7.628;2022-11-15T14:17:55;2.27;;;1.60;;
3369;SDS011;42042;51.948;7.628;2022-11-15T14:20:26;2.20;;;1.53;;
3369;SDS011;42042;51.948;7.628;2022-11-15T14:22:56;1.50;;;1.37;;
3369;SDS011;42042;51.948;7.628;2022-11-15T14:25:24;2.80;;;1.50;;
3369;SDS011;42042;51.948;7.628;2022-11-15T14:28:08;5.23;;;2.00;;
3369;SDS011;42042;51.948;7.628;2022-11-15T14:30:37;1.93;;;1.67;;
3369;SDS011;42042;51.948;7.628;2022-11-15T14:33:14;3.37;;;1.70;;
3369;SDS011;42042;51.948;7.628;2022-11-15T14:35:44;3.80;;;2.10;;
3369;SDS011;42042;51.948;7.628;2022-11-15T14:38:11;3.50;;;1.80;;
3369;SDS011;42042;51.948;7.628;2022-11-15T14:40:39;3.40;;;1.80;;
3369;SDS011;42042;51.948;7.628;2022-11-15T14:43:07;5.27;;;2.10;;
3369;SDS011;42042;51.948;7.628;2022-11-15T14:45:36;1.73;;;1.63;;
3369;SDS011;42042;51.948;7.628;2022-11-15T14:48:04;2.30;;;1.83;;
3369;SDS011;42042;51.948;7.628;2022-11-15T14:50:31;2.17;;;1.70;;
3369;SDS011;42042;51.948;7.628;2022-11-15T14:52:59;4.50;;;1.80;;
3369;SDS011;42042;51.948;7.628;2022-11-15T14:55:27;3.47;;;2.07;;
3369;SDS011;42042;51.948;7.628;2022-11-15T14:57:56;3.80;;;2.50;;
3369;SDS011;42042;51.948;7.628;2022-11-15T15:00:24;3.33;;;1.73;;
3369;SDS011;42042;51.948;7.628;2022-11-15T15:02:53;9.00;;;3.10;;
3369;SDS011;42042;51.948;7.628;2022-11-15T15:05:21;12.37;;;3.17;;
3369;SDS011;42042;51.948;7.628;2022-11-15T15:07:49;6.20;;;2.60;;
3369;SDS011;42042;51.948;7.628;2022-11-15T15:10:16;12.67;;;3.30;;
3369;SDS011;42042;51.948;7.628;2022-11-15T15:12:44;3.17;;;2.60;;
3369;SDS011;42042;51.948;7.628;2022-11-15T15:15:14;6.10;;;3.07;;
3369;SDS011;42042;51.948;7.628;2022-11-15T15:17:42;8.03;;;3.73;;
3369;SDS011;42042;51.948;7.628;2022-11-15T15:20:10;10.87;;;3.67;;